sensor_id;sensor_type;location;lat;lon;timestamp;P1;durP1;ratioP1;P2;durP2;ratioP2
3817;SDS011;1924;48.078;11.516;2022-11-20T00:01:08;27.10;;;0.80;;
3817;SDS011;1924;48.078;11.516;2022-11-20T00:03:35;26.70;;;0.80;;
3817;SDS011;1924;48.078;11.516;2022-11-20T00:06:04;27.00;;;0.80;;
3817;SDS011;1924;48.078;11.516;2022-11-20T00:08:33;26.90;;;0.80;;
3817;SDS011;1924;48.078;11.516;2022-11-20T00:11:02;26.70;;;0.80;;
3817;SDS011;1924;48.078;11.516;2022-11-20T00:13:30;27.00;;;0.80;;
3817;SDS011;1924;48.078;11.516;2022-11-20T00:15:57;26.80;;;0.80;;
3817;SDS011;1924;48.078;11.516;2022-11-20T00:18:24;27.00;;;0.80;;
3817;SDS011;1924;48.078;11.516;2022-11-20T00:20:51;26.90;;;0.80;;
3817;SDS011;1924;48.078;11.516;2022-11-20T00:23:19;27.07;;;0.90;;
3817;SDS011;1924;48.078;11.516;2022-11-20T00:25:46;27.00;;;0.80;;
3817;SDS011;1924;48.078;11.516;2022-11-20T00:28:13;26.90;;;0.80;;
3817;SDS011;1924;48.078;11.516;2022-11-20T00:30:39;27.00;;;0.80;;
3817;SDS011;1924;48.078;11.516;2022-11-20T00:33:06;26.70;;;0.80;;
3817;SDS011;1924;48.078;11.516;2022-11-20T00:35:33;26.90;;;0.80;;
3817;SDS011;1924;48.078;11.516;2022-11-20T00:38:00;26.90;;;0.80;;
3817;SDS011;1924;48.078;11.516;2022-11-20T00:40:28;26.70;;;0.80;;
3817;SDS011;1924;48.078;11.516;2022-11-20T00:42:54;26.90;;;0.80;;
3817;SDS011;1924;48.078;11.516;2022-11-20T00:45:21;26.80;;;0.80;;
3817;SDS011;1924;48.078;11.516;2022-11-20T00:47:48;26.90;;;0.80;;
3817;SDS011;1924;48.078;11.516;2022-11-20T00:50:15;27.00;;;0.80;;
3817;SDS011;1924;48.078;11.516;2022-11-20T00:52:41;27.00;;;0.80;;
3817;SDS011;1924;48.078;11.516;2022-11-20T00:55:08;26.90;;;0.80;;
3817;SDS011;1924;48.078;11.516;2022-11-20T00:57:36;26.80;;;0.80;;
3817;SDS011;1924;48.078;11.516;2022-11-20T01:00:03;27.00;;;0.80;;
3817;SDS011;1924;48.078;11.516;2022-11-20T01:02:31;26.90;;;0.80;;
3817;SDS011;1924;48.078;11.516;2022-11-20T01:04:58;26.90;;;0.80;;
3817;SDS011;1924;48.078;11.516;2022-11-20T01:07:24;26.80;;;0.80;;
3817;SDS011;1924;48.078;11.516;2022-11-20T01:09:51;27.00;;;0.80;;
3817;SDS011;1924;48.078;11.516;2022-11-20T01:12:18;26.80;;;0.80;;
3817;SDS011;1924;48.078;11.516;2022-11-20T01:14:46;27.00;;;0.80;;
3817;SDS011;1924;48.078;11.516;2022-11-20T01:17:13;26.90;;;0.80;;
3817;SDS011;1924;48.078;11.516;2022-11-20T01:19:40;26.90;;;0.80;;
3817;SDS011;1924;48.078;11.516;2022-11-20T01:22:06;26.90;;;0.80;;
3817;SDS011;1924;48.078;11.516;2022-11-20T01:24:33;26.80;;;0.80;;
3817;SDS011;1924;48.078;11.516;2022-11-20T01:27:00;27.00;;;0.80;;
3817;SDS011;1924;48.078;11.516;2022-11-20T01:29:27;26.90;;;0.80;;
3817;SDS011;1924;48.078;11.516;2022-11-20T01:31:55;26.97;;;0.80;;
3817;SDS011;1924;48.078;11.516;2022-11-20T01:34:22;27.00;;;0.80;;
3817;SDS011;1924;48.078;11.516;2022-11-20T01:36:50;26.97;;;0.80;;
3817;SDS011;1924;48.078;11.516;2022-11-20T01:39:18;27.07;;;0.80;;
3817;SDS011;1924;48.078;11.516;2022-11-20T01:41:46;26.80;;;0.80;;
3817;SDS011;1924;48.078;11.516;2022-11-20T01:44:55;27.10;;;0.80;;
3817;SDS011;1924;48.078;11.516;2022-11-20T01:47:25;26.80;;;0.80;;
3817;SDS011;1924;48.078;11.516;2022-11-20T01:49:56;26.83;;;0.80;;
3817;SDS011;1924;48.078;11.516;2022-11-20T01:52:28;26.97;;;0.80;;
3817;SDS011;1924;48.078;11.516;2022-11-20T01:55:00;26.90;;;0.80;;
3817;SDS011;1924;48.078;11.516;2022-11-20T01:57:31;27.00;;;0.80;;
3817;SDS011;1924;48.078;11.516;2022-11-20T02:00:00;26.90;;;0.80;;
3817;SDS011;1924;48.078;11.516;2022-11-20T02:02:31;26.90;;;0.80;;
3817;SDS011;1924;48.078;11.516;2022-11-20T02:05:00;27.00;;;0.80;;
3817;SDS011;1924;48.078;11.516;2022-11-20T02:07:35;26.90;;;0.80;;
3817;SDS011;1924;48.078;11.516;2022-11-20T02:10:02;27.00;;;0.80;;
3817;SDS011;1924;48.078;11.516;2022-11-20T02:12:30;26.90;;;0.80;;
3817;SDS011;1924;48.078;11.516;2022-11-20T02:15:14;26.90;;;0.80;;
3817;SDS011;1924;48.078;11.516;2022-11-20T02:17:42;26.70;;;0.80;;
3817;SDS011;1924;48.078;11.516;2022-11-20T02:20:09;27.10;;;0.80;;
3817;SDS011;1924;48.078;11.516;2022-11-20T02:22:37;27.10;;;0.80;;
3817;SDS011;1924;48.078;11.516;2022-11-20T02:25:09;27.00;;;0.80;;
3817;SDS011;1924;48.078;11.516;2022-11-20T02:27:37;27.00;;;0.80;;
3817;SDS011;1924;48.078;11.516;2022-11-20T02:30:05;27.00;;;0.80;;
3817;SDS011;1924;48.078;11.516;2022-11-20T02:32:33;26.90;;;0.80;;
3817;SDS011;1924;48.078;11.516;2022-11-20T02:35:06;27.10;;;0.80;;
3817;SDS011;1924;48.078;11.516;2022-11-20T02:37:34;26.90;;;0.80;;
3817;SDS011;1924;48.078;11.516;2022-11-20T02:40:05;26.90;;;0.80;;
3817;SDS011;1924;48.078;11.516;2022-11-20T02:42:34;26.90;;;0.80;;
3817;SDS011;1924;48.078;11.516;2022-11-20T02:45:01;26.90;;;0.80;;
3817;SDS011;1924;48.078;11.516;2022-11-20T02:47:27;26.97;;;0.80;;
3817;SDS011;1924;48.078;11.516;2022-11-20T02:49:54;26.90;;;0.80;;
3817;SDS011;1924;48.078;11.516;2022-11-20T02:52:21;26.90;;;0.80;;
3817;SDS011;1924;48.078;11.516;2022-11-20T02:54:48;27.10;;;0.80;;
3817;SDS011;1924;48.078;11.516;2022-11-20T02:57:15;26.90;;;0.80;;
3817;SDS011;1924;48.078;11.516;2022-11-20T02:59:43;27.00;;;0.80;;
3817;SDS011;1924;48.078;11.516;2022-11-20T03:02:10;27.00;;;0.80;;
3817;SDS011;1924;48.078;11.516;2022-11-20T03:04:36;26.90;;;0.80;;
3817;SDS011;1924;48.078;11.516;2022-11-20T03:07:03;26.80;;;0.80;;
3817;SDS011;1924;48.078;11.516;2022-11-20T03:09:30;27.00;;;0.80;;
3817;SDS011;1924;48.078;11.516;2022-11-20T03:11:57;26.90;;;0.80;;
3817;SDS011;1924;48.078;11.516;2022-11-20T03:14:23;27.00;;;0.80;;
3817;SDS011;1924;48.078;11.516;2022-11-20T03:16:51;26.90;;;0.80;;
3817;SDS011;1924;48.078;11.516;2022-11-20T03:19:18;26.90;;;0.80;;
3817;SDS011;1924;48.078;11.516;2022-11-20T03:21:45;26.80;;;0.80;;
3817;SDS011;1924;48.078;11.516;2022-11-20T03:24:12;26.70;;;0.80;;
3817;SDS011;1924;48.078;11.516;2022-11-20T03:26:39;26.80;;;0.80;;
3817;SDS011;1924;48.078;11.516;2022-11-20T03:29:06;26.80;;;0.80;;
3817;SDS011;1924;48.078;11.516;2022-11-20T03:31:33;26.90;;;0.80;;
3817;SDS011;1924;48.078;11.516;2022-11-20T03:34:03;26.90;;;0.80;;
3817;SDS011;1924;48.078;11.516;2022-11-20T03:36:30;27.00;;;0.80;;
3817;SDS011;1924;48.078;11.516;2022-11-20T03:38:57;26.90;;;0.80;;
3817;SDS011;1924;48.078;11.516;2022-11-20T03:41:25;26.90;;;0.80;;
3817;SDS011;1924;48.078;11.516;2022-11-20T03:43:53;27.00;;;0.80;;
3817;SDS011;1924;48.078;11.516;2022-11-20T03:46:22;26.80;;;0.80;;
3817;SDS011;1924;48.078;11.516;2022-11-20T03:48:49;27.00;;;0.80;;
3817;SDS011;1924;48.078;11.516;2022-11-20T03:51:18;26.70;;;0.80;;
3817;SDS011;1924;48.078;11.516;2022-11-20T03:53:46;26.97;;;0.80;;
3817;SDS011;1924;48.078;11.516;2022-11-20T03:56:15;26.70;;;0.80;;
3817;SDS011;1924;48.078;11.516;2022-11-20T03:58:43;27.00;;;0.80;;
3817;SDS011;1924;48.078;11.516;2022-11-20T04:01:11;26.80;;;0.80;;
3817;SDS011;1924;48.078;11.516;2022-11-20T04:03:39;26.80;;;0.80;;
3817;SDS011;1924;48.078;11.516;2022-11-20T04:06:08;26.83;;;0.80;;
3817;SDS011;1924;48.078;11.516;2022-11-20T04:08:38;27.00;;;0.80;;
3817;SDS011;1924;48.078;11.516;2022-11-20T04:11:12;26.83;;;0.80;;
3817;SDS011;1924;48.078;11.516;2022-11-20T04:13:40;27.00;;;0.80;;
3817;SDS011;1924;48.078;11.516;2022-11-20T04:16:09;27.00;;;0.80;;
3817;SDS011;1924;48.078;11.516;2022-11-20T04:18:35;27.10;;;0.80;;
3817;SDS011;1924;48.078;11.516;2022-11-20T04:21:03;26.90;;;0.80;;
3817;SDS011;1924;48.078;11.516;2022-11-20T04:23:30;27.00;;;0.80;;
3817;SDS011;1924;48.078;11.516;2022-11-20T04:26:01;26.70;;;0.80;;
3817;SDS011;1924;48.078;11.516;2022-11-20T04:28:29;27.00;;;0.80;;
3817;SDS011;1924;48.078;11.516;2022-11-20T04:31:01;26.90;;;0.80;;
3817;SDS011;1924;48.078;11.516;2022-11-20T04:33:29;26.80;;;0.80;;
3817;SDS011;1924;48.078;11.516;2022-11-20T04:35:59;26.87;;;0.80;;
3817;SDS011;1924;48.078;11.516;2022-11-20T04:38:26;26.77;;;0.80;;
3817;SDS011;1924;48.078;11.516;2022-11-20T04:40:55;27.00;;;0.80;;
3817;SDS011;1924;48.078;11.516;2022-11-20T04:43:24;26.80;;;0.80;;
3817;SDS011;1924;48.078;11.516;2022-11-20T04:45:51;26.80;;;0.80;;
3817;SDS011;1924;48.078;11.516;2022-11-20T05:01:21;26.97;;;0.80;;
3817;SDS011;1924;48.078;11.516;2022-11-20T05:03:49;26.80;;;0.80;;
3817;SDS011;1924;48.078;11.516;2022-11-20T05:06:17;27.00;;;0.80;;
3817;SDS011;1924;48.078;11.516;2022-11-20T05:08:45;26.90;;;0.80;;
3817;SDS011;1924;48.078;11.516;2022-11-20T05:11:13;26.90;;;0.80;;
3817;SDS011;1924;48.078;11.516;2022-11-20T05:13:41;26.60;;;0.80;;
3817;SDS011;1924;48.078;11.516;2022-11-20T05:16:09;26.80;;;0.80;;
3817;SDS011;1924;48.078;11.516;2022-11-20T05:18:38;26.97;;;0.80;;
3817;SDS011;1924;48.078;11.516;2022-11-20T05:21:06;26.90;;;0.80;;
3817;SDS011;1924;48.078;11.516;2022-11-20T05:23:33;26.90;;;0.80;;
3817;SDS011;1924;48.078;11.516;2022-11-20T05:26:01;26.90;;;0.80;;
3817;SDS011;1924;48.078;11.516;2022-11-20T05:28:29;26.90;;;0.80;;
3817;SDS011;1924;48.078;11.516;2022-11-20T05:31:03;26.80;;;0.80;;
3817;SDS011;1924;48.078;11.516;2022-11-20T05:33:31;26.90;;;0.80;;
3817;SDS011;1924;48.078;11.516;2022-11-20T05:35:59;26.83;;;0.80;;
3817;SDS011;1924;48.078;11.516;2022-11-20T05:38:26;26.90;;;0.80;;
3817;SDS011;1924;48.078;11.516;2022-11-20T05:40:53;26.90;;;0.80;;
3817;SDS011;1924;48.078;11.516;2022-11-20T05:43:20;27.00;;;0.80;;
3817;SDS011;1924;48.078;11.516;2022-11-20T05:45:51;26.80;;;0.80;;
3817;SDS011;1924;48.078;11.516;2022-11-20T05:48:18;26.70;;;0.80;;
3817;SDS011;1924;48.078;11.516;2022-11-20T05:50:45;26.90;;;0.80;;
3817;SDS011;1924;48.078;11.516;2022-11-20T05:53:13;27.07;;;0.80;;
3817;SDS011;1924;48.078;11.516;2022-11-20T05:55:40;26.80;;;0.80;;
3817;SDS011;1924;48.078;11.516;2022-11-20T05:58:07;26.80;;;0.80;;
3817;SDS011;1924;48.078;11.516;2022-11-20T06:00:33;26.70;;;0.80;;
3817;SDS011;1924;48.078;11.516;2022-11-20T06:03:00;27.00;;;0.80;;
3817;SDS011;1924;48.078;11.516;2022-11-20T06:05:27;26.90;;;0.80;;
3817;SDS011;1924;48.078;11.516;2022-11-20T06:07:54;26.90;;;0.80;;
3817;SDS011;1924;48.078;11.516;2022-11-20T06:10:22;26.90;;;0.80;;
3817;SDS011;1924;48.078;11.516;2022-11-20T06:12:49;26.90;;;0.80;;
3817;SDS011;1924;48.078;11.516;2022-11-20T06:15:15;26.90;;;0.80;;
3817;SDS011;1924;48.078;11.516;2022-11-20T06:17:42;27.00;;;0.80;;
3817;SDS011;1924;48.078;11.516;2022-11-20T06:20:09;27.00;;;0.80;;
3817;SDS011;1924;48.078;11.516;2022-11-20T06:22:36;26.90;;;0.80;;
3817;SDS011;1924;48.078;11.516;2022-11-20T06:25:03;26.90;;;0.80;;
3817;SDS011;1924;48.078;11.516;2022-11-20T06:27:31;26.80;;;0.80;;
3817;SDS011;1924;48.078;11.516;2022-11-20T06:29:58;26.90;;;0.80;;
3817;SDS011;1924;48.078;11.516;2022-11-20T06:32:25;26.80;;;0.80;;
3817;SDS011;1924;48.078;11.516;2022-11-20T06:34:52;26.70;;;0.80;;
3817;SDS011;1924;48.078;11.516;2022-11-20T06:37:18;26.90;;;0.80;;
3817;SDS011;1924;48.078;11.516;2022-11-20T06:39:45;26.80;;;0.80;;
3817;SDS011;1924;48.078;11.516;2022-11-20T06:42:12;26.90;;;0.80;;
3817;SDS011;1924;48.078;11.516;2022-11-20T06:44:40;27.00;;;0.80;;
3817;SDS011;1924;48.078;11.516;2022-11-20T06:47:06;26.83;;;0.80;;
3817;SDS011;1924;48.078;11.516;2022-11-20T06:49:33;26.90;;;0.80;;
3817;SDS011;1924;48.078;11.516;2022-11-20T06:52:02;26.97;;;0.80;;
3817;SDS011;1924;48.078;11.516;2022-11-20T06:54:28;27.00;;;0.80;;
3817;SDS011;1924;48.078;11.516;2022-11-20T06:56:55;26.90;;;0.80;;
3817;SDS011;1924;48.078;11.516;2022-11-20T06:59:22;26.90;;;0.80;;
3817;SDS011;1924;48.078;11.516;2022-11-20T07:01:50;27.00;;;0.80;;
3817;SDS011;1924;48.078;11.516;2022-11-20T07:04:17;26.70;;;0.80;;
3817;SDS011;1924;48.078;11.516;2022-11-20T07:06:44;26.70;;;0.80;;
3817;SDS011;1924;48.078;11.516;2022-11-20T07:09:10;26.80;;;0.80;;
3817;SDS011;1924;48.078;11.516;2022-11-20T07:11:37;26.90;;;0.80;;
3817;SDS011;1924;48.078;11.516;2022-11-20T07:14:04;26.80;;;0.80;;
3817;SDS011;1924;48.078;11.516;2022-11-20T07:16:30;26.90;;;0.80;;
3817;SDS011;1924;48.078;11.516;2022-11-20T07:18:59;26.70;;;0.80;;
3817;SDS011;1924;48.078;11.516;2022-11-20T07:21:25;26.80;;;0.80;;
3817;SDS011;1924;48.078;11.516;2022-11-20T07:23:52;26.80;;;0.80;;
3817;SDS011;1924;48.078;11.516;2022-11-20T07:26:19;26.80;;;0.80;;
3817;SDS011;1924;48.078;11.516;2022-11-20T07:28:46;26.80;;;0.80;;
3817;SDS011;1924;48.078;11.516;2022-11-20T07:31:13;26.90;;;0.80;;
3817;SDS011;1924;48.078;11.516;2022-11-20T07:33:40;26.70;;;0.80;;
3817;SDS011;1924;48.078;11.516;2022-11-20T07:36:08;26.90;;;0.80;;
3817;SDS011;1924;48.078;11.516;2022-11-20T07:38:36;26.87;;;0.80;;
3817;SDS011;1924;48.078;11.516;2022-11-20T07:41:03;26.80;;;0.80;;
3817;SDS011;1924;48.078;11.516;2022-11-20T07:43:30;26.70;;;0.80;;
3817;SDS011;1924;48.078;11.516;2022-11-20T07:45:57;26.90;;;0.80;;
3817;SDS011;1924;48.078;11.516;2022-11-20T07:48:25;26.80;;;0.80;;
3817;SDS011;1924;48.078;11.516;2022-11-20T07:50:53;26.80;;;0.80;;
3817;SDS011;1924;48.078;11.516;2022-11-20T07:53:21;26.70;;;0.80;;
3817;SDS011;1924;48.078;11.516;2022-11-20T07:55:48;26.70;;;0.80;;
3817;SDS011;1924;48.078;11.516;2022-11-20T07:58:17;26.90;;;0.80;;
3817;SDS011;1924;48.078;11.516;2022-11-20T08:00:44;26.70;;;0.80;;
3817;SDS011;1924;48.078;11.516;2022-11-20T08:03:10;26.80;;;0.80;;
3817;SDS011;1924;48.078;11.516;2022-11-20T08:05:37;26.60;;;0.80;;
3817;SDS011;1924;48.078;11.516;2022-11-20T08:08:04;26.80;;;0.80;;
3817;SDS011;1924;48.078;11.516;2022-11-20T08:10:33;26.70;;;0.80;;
3817;SDS011;1924;48.078;11.516;2022-11-20T08:13:00;26.60;;;0.80;;
3817;SDS011;1924;48.078;11.516;2022-11-20T08:15:47;26.60;;;0.80;;
3817;SDS011;1924;48.078;11.516;2022-11-20T08:18:15;26.70;;;0.80;;
3817;SDS011;1924;48.078;11.516;2022-11-20T08:20:43;26.77;;;0.80;;
3817;SDS011;1924;48.078;11.516;2022-11-20T08:23:10;26.60;;;0.80;;
3817;SDS011;1924;48.078;11.516;2022-11-20T08:25:38;26.70;;;0.80;;
3817;SDS011;1924;48.078;11.516;2022-11-20T08:28:05;26.60;;;0.80;;
3817;SDS011;1924;48.078;11.516;2022-11-20T08:30:33;26.60;;;0.80;;
3817;SDS011;1924;48.078;11.516;2022-11-20T08:33:02;26.50;;;0.80;;
3817;SDS011;1924;48.078;11.516;2022-11-20T08:35:32;26.50;;;0.80;;
3817;SDS011;1924;48.078;11.516;2022-11-20T08:38:00;26.63;;;0.80;;
3817;SDS011;1924;48.078;11.516;2022-11-20T08:40:27;26.60;;;0.77;;
3817;SDS011;1924;48.078;11.516;2022-11-20T08:42:55;26.70;;;0.80;;
3817;SDS011;1924;48.078;11.516;2022-11-20T08:45:23;26.70;;;0.80;;
3817;SDS011;1924;48.078;11.516;2022-11-20T08:47:50;26.63;;;0.80;;
3817;SDS011;1924;48.078;11.516;2022-11-20T08:50:17;26.60;;;0.80;;
3817;SDS011;1924;48.078;11.516;2022-11-20T08:52:44;26.60;;;0.80;;
3817;SDS011;1924;48.078;11.516;2022-11-20T08:55:11;26.60;;;0.80;;
3817;SDS011;1924;48.078;11.516;2022-11-20T08:57:38;26.60;;;0.80;;
3817;SDS011;1924;48.078;11.516;2022-11-20T09:00:07;26.60;;;0.80;;
3817;SDS011;1924;48.078;11.516;2022-11-20T09:02:34;26.60;;;0.80;;
3817;SDS011;1924;48.078;11.516;2022-11-20T09:05:01;26.70;;;0.80;;
3817;SDS011;1924;48.078;11.516;2022-11-20T09:07:28;26.60;;;0.70;;
3817;SDS011;1924;48.078;11.516;2022-11-20T09:09:55;26.57;;;0.80;;
3817;SDS011;1924;48.078;11.516;2022-11-20T09:12:22;26.60;;;0.80;;
3817;SDS011;1924;48.078;11.516;2022-11-20T09:14:49;26.60;;;0.80;;
3817;SDS011;1924;48.078;11.516;2022-11-20T09:17:17;26.60;;;0.80;;
3817;SDS011;1924;48.078;11.516;2022-11-20T09:19:45;26.60;;;0.80;;
3817;SDS011;1924;48.078;11.516;2022-11-20T09:22:12;26.70;;;0.80;;
3817;SDS011;1924;48.078;11.516;2022-11-20T09:24:38;26.40;;;0.80;;
3817;SDS011;1924;48.078;11.516;2022-11-20T09:27:05;26.50;;;0.80;;
3817;SDS011;1924;48.078;11.516;2022-11-20T09:29:32;26.70;;;0.80;;
3817;SDS011;1924;48.078;11.516;2022-11-20T09:32:00;26.60;;;0.80;;
3817;SDS011;1924;48.078;11.516;2022-11-20T09:34:28;26.50;;;0.73;;
3817;SDS011;1924;48.078;11.516;2022-11-20T09:36:55;26.50;;;0.80;;
3817;SDS011;1924;48.078;11.516;2022-11-20T09:39:22;26.60;;;0.80;;
3817;SDS011;1924;48.078;11.516;2022-11-20T09:41:56;26.40;;;0.80;;
3817;SDS011;1924;48.078;11.516;2022-11-20T09:44:47;26.60;;;0.80;;
3817;SDS011;1924;48.078;11.516;2022-11-20T09:47:24;26.50;;;0.70;;
3817;SDS011;1924;48.078;11.516;2022-11-20T09:50:05;26.37;;;0.80;;
3817;SDS011;1924;48.078;11.516;2022-11-20T09:52:46;26.40;;;0.70;;
3817;SDS011;1924;48.078;11.516;2022-11-20T09:55:21;26.60;;;0.80;;
3817;SDS011;1924;48.078;11.516;2022-11-20T09:57:48;26.50;;;0.80;;
3817;SDS011;1924;48.078;11.516;2022-11-20T10:00:18;26.50;;;0.80;;
3817;SDS011;1924;48.078;11.516;2022-11-20T10:02:47;26.50;;;0.80;;
3817;SDS011;1924;48.078;11.516;2022-11-20T10:05:20;26.30;;;0.80;;
3817;SDS011;1924;48.078;11.516;2022-11-20T10:07:52;26.67;;;0.80;;
3817;SDS011;1924;48.078;11.516;2022-11-20T10:10:28;26.30;;;0.80;;
3817;SDS011;1924;48.078;11.516;2022-11-20T10:13:02;26.50;;;0.80;;
3817;SDS011;1924;48.078;11.516;2022-11-20T10:15:42;26.50;;;0.80;;
3817;SDS011;1924;48.078;11.516;2022-11-20T10:18:24;26.40;;;0.80;;
3817;SDS011;1924;48.078;11.516;2022-11-20T10:21:03;26.37;;;0.73;;
3817;SDS011;1924;48.078;11.516;2022-11-20T10:23:53;26.30;;;0.73;;
3817;SDS011;1924;48.078;11.516;2022-11-20T10:26:38;26.60;;;0.80;;
3817;SDS011;1924;48.078;11.516;2022-11-20T10:29:16;26.60;;;0.80;;
3817;SDS011;1924;48.078;11.516;2022-11-20T10:31:45;26.50;;;0.80;;
3817;SDS011;1924;48.078;11.516;2022-11-20T10:34:18;26.60;;;0.70;;
3817;SDS011;1924;48.078;11.516;2022-11-20T10:36:52;26.30;;;0.80;;
3817;SDS011;1924;48.078;11.516;2022-11-20T10:39:24;26.60;;;0.80;;
3817;SDS011;1924;48.078;11.516;2022-11-20T10:41:57;26.40;;;0.70;;
3817;SDS011;1924;48.078;11.516;2022-11-20T10:44:26;26.30;;;0.70;;
3817;SDS011;1924;48.078;11.516;2022-11-20T10:47:12;26.30;;;0.80;;
3817;SDS011;1924;48.078;11.516;2022-11-20T10:49:40;26.40;;;0.80;;
3817;SDS011;1924;48.078;11.516;2022-11-20T10:52:11;26.20;;;0.80;;
3817;SDS011;1924;48.078;11.516;2022-11-20T10:54:47;26.30;;;0.70;;
3817;SDS011;1924;48.078;11.516;2022-11-20T10:57:24;26.40;;;0.70;;
3817;SDS011;1924;48.078;11.516;2022-11-20T11:00:04;26.40;;;0.70;;
3817;SDS011;1924;48.078;11.516;2022-11-20T11:02:34;26.10;;;0.80;;
3817;SDS011;1924;48.078;11.516;2022-11-20T11:05:08;26.20;;;0.77;;
3817;SDS011;1924;48.078;11.516;2022-11-20T11:07:44;26.10;;;0.70;;
3817;SDS011;1924;48.078;11.516;2022-11-20T11:10:14;26.20;;;0.77;;
3817;SDS011;1924;48.078;11.516;2022-11-20T11:12:44;26.30;;;0.73;;
3817;SDS011;1924;48.078;11.516;2022-11-20T11:15:13;26.30;;;0.80;;
3817;SDS011;1924;48.078;11.516;2022-11-20T11:17:50;26.30;;;0.70;;
3817;SDS011;1924;48.078;11.516;2022-11-20T11:20:17;26.03;;;0.80;;
3817;SDS011;1924;48.078;11.516;2022-11-20T11:22:47;26.23;;;0.70;;
3817;SDS011;1924;48.078;11.516;2022-11-20T11:25:19;26.20;;;0.70;;
3817;SDS011;1924;48.078;11.516;2022-11-20T11:27:49;26.00;;;0.70;;
3817;SDS011;1924;48.078;11.516;2022-11-20T11:30:17;26.10;;;0.80;;
3817;SDS011;1924;48.078;11.516;2022-11-20T11:32:45;26.10;;;0.70;;
3817;SDS011;1924;48.078;11.516;2022-11-20T11:35:20;26.00;;;0.70;;
3817;SDS011;1924;48.078;11.516;2022-11-20T11:37:50;26.20;;;0.80;;
3817;SDS011;1924;48.078;11.516;2022-11-20T11:40:19;26.20;;;0.70;;
3817;SDS011;1924;48.078;11.516;2022-11-20T11:42:50;26.10;;;0.70;;
3817;SDS011;1924;48.078;11.516;2022-11-20T11:45:20;26.10;;;0.70;;
3817;SDS011;1924;48.078;11.516;2022-11-20T11:47:47;26.20;;;0.70;;
3817;SDS011;1924;48.078;11.516;2022-11-20T11:50:16;26.20;;;0.70;;
3817;SDS011;1924;48.078;11.516;2022-11-20T11:52:46;26.20;;;0.70;;
3817;SDS011;1924;48.078;11.516;2022-11-20T11:55:25;25.90;;;0.70;;
3817;SDS011;1924;48.078;11.516;2022-11-20T11:57:58;26.10;;;0.70;;
3817;SDS011;1924;48.078;11.516;2022-11-20T12:00:33;25.90;;;0.70;;
3817;SDS011;1924;48.078;11.516;2022-11-20T12:03:04;26.00;;;0.70;;
3817;SDS011;1924;48.078;11.516;2022-11-20T12:05:36;25.90;;;0.70;;
3817;SDS011;1924;48.078;11.516;2022-11-20T12:08:12;25.90;;;0.80;;
3817;SDS011;1924;48.078;11.516;2022-11-20T12:10:44;26.00;;;0.70;;
3817;SDS011;1924;48.078;11.516;2022-11-20T12:13:18;25.90;;;0.70;;
3817;SDS011;1924;48.078;11.516;2022-11-20T12:15:52;26.10;;;0.70;;
3817;SDS011;1924;48.078;11.516;2022-11-20T12:18:20;26.10;;;0.70;;
3817;SDS011;1924;48.078;11.516;2022-11-20T12:20:51;25.90;;;0.70;;
3817;SDS011;1924;48.078;11.516;2022-11-20T12:23:28;25.80;;;0.70;;
3817;SDS011;1924;48.078;11.516;2022-11-20T12:26:03;26.10;;;0.80;;
3817;SDS011;1924;48.078;11.516;2022-11-20T12:28:43;25.90;;;0.70;;
3817;SDS011;1924;48.078;11.516;2022-11-20T12:31:22;26.00;;;0.70;;
3817;SDS011;1924;48.078;11.516;2022-11-20T12:34:10;26.10;;;0.73;;
3817;SDS011;1924;48.078;11.516;2022-11-20T12:36:48;26.10;;;0.70;;
3817;SDS011;1924;48.078;11.516;2022-11-20T12:39:32;26.20;;;0.70;;
3817;SDS011;1924;48.078;11.516;2022-11-20T12:42:04;26.30;;;0.70;;
3817;SDS011;1924;48.078;11.516;2022-11-20T12:45:02;26.50;;;0.80;;
3817;SDS011;1924;48.078;11.516;2022-11-20T12:47:51;26.20;;;0.80;;
3817;SDS011;1924;48.078;11.516;2022-11-20T12:50:30;26.20;;;0.80;;
3817;SDS011;1924;48.078;11.516;2022-11-20T12:53:04;26.10;;;0.70;;
3817;SDS011;1924;48.078;11.516;2022-11-20T12:55:36;26.30;;;0.80;;
3817;SDS011;1924;48.078;11.516;2022-11-20T12:58:12;26.30;;;0.80;;
3817;SDS011;1924;48.078;11.516;2022-11-20T13:00:47;26.20;;;0.80;;
3817;SDS011;1924;48.078;11.516;2022-11-20T13:06:09;26.23;;;0.80;;
3817;SDS011;1924;48.078;11.516;2022-11-20T13:08:39;26.30;;;0.80;;
3817;SDS011;1924;48.078;11.516;2022-11-20T13:11:12;26.20;;;0.80;;
3817;SDS011;1924;48.078;11.516;2022-11-20T13:13:48;26.20;;;0.80;;
3817;SDS011;1924;48.078;11.516;2022-11-20T13:16:36;26.30;;;0.80;;
3817;SDS011;1924;48.078;11.516;2022-11-20T13:19:07;26.30;;;0.80;;
3817;SDS011;1924;48.078;11.516;2022-11-20T13:21:38;26.30;;;0.80;;
3817;SDS011;1924;48.078;11.516;2022-11-20T13:24:06;26.30;;;0.80;;
3817;SDS011;1924;48.078;11.516;2022-11-20T13:26:34;26.20;;;0.70;;
3817;SDS011;1924;48.078;11.516;2022-11-20T13:29:03;26.40;;;0.80;;
3817;SDS011;1924;48.078;11.516;2022-11-20T13:31:35;26.50;;;0.80;;
3817;SDS011;1924;48.078;11.516;2022-11-20T13:34:05;26.47;;;0.80;;
3817;SDS011;1924;48.078;11.516;2022-11-20T13:36:33;26.47;;;0.80;;
3817;SDS011;1924;48.078;11.516;2022-11-20T13:39:01;26.40;;;0.80;;
3817;SDS011;1924;48.078;11.516;2022-11-20T13:41:28;26.30;;;0.80;;
3817;SDS011;1924;48.078;11.516;2022-11-20T13:44:04;26.30;;;0.80;;
3817;SDS011;1924;48.078;11.516;2022-11-20T13:46:37;26.33;;;0.80;;
3817;SDS011;1924;48.078;11.516;2022-11-20T13:49:06;26.40;;;0.80;;
3817;SDS011;1924;48.078;11.516;2022-11-20T13:51:37;26.50;;;0.80;;
3817;SDS011;1924;48.078;11.516;2022-11-20T13:57:41;26.40;;;0.80;;
3817;SDS011;1924;48.078;11.516;2022-11-20T14:00:18;26.50;;;0.77;;
3817;SDS011;1924;48.078;11.516;2022-11-20T14:02:49;26.20;;;0.80;;
3817;SDS011;1924;48.078;11.516;2022-11-20T14:05:33;26.40;;;0.80;;
3817;SDS011;1924;48.078;11.516;2022-11-20T14:08:03;26.40;;;0.80;;
3817;SDS011;1924;48.078;11.516;2022-11-20T14:10:30;26.10;;;0.80;;
3817;SDS011;1924;48.078;11.516;2022-11-20T14:12:57;26.20;;;0.80;;
3817;SDS011;1924;48.078;11.516;2022-11-20T14:15:27;26.30;;;0.80;;
3817;SDS011;1924;48.078;11.516;2022-11-20T14:17:55;26.30;;;0.80;;
3817;SDS011;1924;48.078;11.516;2022-11-20T14:20:23;26.40;;;0.80;;
3817;SDS011;1924;48.078;11.516;2022-11-20T14:22:51;26.40;;;0.80;;
3817;SDS011;1924;48.078;11.516;2022-11-20T14:25:19;26.20;;;0.80;;
3817;SDS011;1924;48.078;11.516;2022-11-20T14:27:50;26.20;;;0.80;;
3817;SDS011;1924;48.078;11.516;2022-11-20T14:30:19;26.30;;;0.80;;
3817;SDS011;1924;48.078;11.516;2022-11-20T14:32:49;26.40;;;0.80;;
3817;SDS011;1924;48.078;11.516;2022-11-20T14:35:18;26.20;;;0.80;;
3817;SDS011;1924;48.078;11.516;2022-11-20T14:37:49;26.20;;;0.80;;
3817;SDS011;1924;48.078;11.516;2022-11-20T14:40:24;26.20;;;0.80;;
3817;SDS011;1924;48.078;11.516;2022-11-20T14:42:54;26.40;;;0.80;;
3817;SDS011;1924;48.078;11.516;2022-11-20T14:45:21;26.40;;;0.80;;
3817;SDS011;1924;48.078;11.516;2022-11-20T14:47:51;26.40;;;0.80;;
3817;SDS011;1924;48.078;11.516;2022-11-20T14:50:19;26.20;;;0.80;;
3817;SDS011;1924;48.078;11.516;2022-11-20T14:52:50;26.30;;;0.77;;
3817;SDS011;1924;48.078;11.516;2022-11-20T14:55:27;26.20;;;0.80;;
3817;SDS011;1924;48.078;11.516;2022-11-20T14:57:56;26.40;;;0.80;;
3817;SDS011;1924;48.078;11.516;2022-11-20T15:00:24;26.30;;;0.80;;
3817;SDS011;1924;48.078;11.516;2022-11-20T15:02:52;26.20;;;0.80;;
3817;SDS011;1924;48.078;11.516;2022-11-20T15:05:21;26.40;;;0.80;;
3817;SDS011;1924;48.078;11.516;2022-11-20T15:07:49;26.40;;;0.80;;
3817;SDS011;1924;48.078;11.516;2022-11-20T15:10:21;26.30;;;0.80;;
3817;SDS011;1924;48.078;11.516;2022-11-20T15:12:51;26.30;;;0.80;;
3817;SDS011;1924;48.078;11.516;2022-11-20T15:15:24;26.40;;;0.80;;
3817;SDS011;1924;48.078;11.516;2022-11-20T15:17:56;26.10;;;0.80;;
3817;SDS011;1924;48.078;11.516;2022-11-20T15:20:25;26.20;;;0.80;;
3817;SDS011;1924;48.078;11.516;2022-11-20T15:22:54;26.30;;;0.80;;